createdAt,value
2017-10-13T00:02:09.995Z,101930.71
2017-10-13T00:04:37.641Z,101933.59
2017-10-13T00:07:05.266Z,101939.73
2017-10-13T00:09:32.857Z,101937.59
2017-10-13T00:12:00.455Z,101945.97
2017-10-13T00:14:28.079Z,101945.87
2017-10-13T00:16:55.675Z,101958.95
2017-10-13T00:19:23.293Z,101955.48
2017-10-13T00:21:50.987Z,101961.03
2017-10-13T00:24:18.627Z,101966.87
2017-10-13T00:26:46.230Z,101964.53
2017-10-13T00:29:13.870Z,101951.87
2017-10-13T00:31:41.471Z,101956.77
2017-10-13T00:34:09.110Z,101951.95
2017-10-13T00:36:36.727Z,101957.05
2017-10-13T00:39:04.391Z,101948.95
2017-10-13T00:41:31.983Z,101949.52
2017-10-13T00:43:59.614Z,101945.52
2017-10-13T00:46:27.328Z,101945.18
2017-10-13T00:48:54.974Z,101951.34
2017-10-13T00:51:22.585Z,101958.13
2017-10-13T00:53:50.373Z,101960.58
2017-10-13T00:56:17.964Z,101968.45
2017-10-13T00:58:45.591Z,101964.69
2017-10-13T01:01:13.203Z,101951.51
2017-10-13T01:03:40.847Z,101960.03
2017-10-13T01:06:08.475Z,101953.05
2017-10-13T01:08:36.091Z,101953.44
2017-10-13T01:11:03.696Z,101950.62
2017-10-13T01:13:31.286Z,101956.25
2017-10-13T01:15:58.902Z,101954.41
2017-10-13T01:18:26.490Z,101952.98
2017-10-13T01:20:54.098Z,101953.70
2017-10-13T01:23:21.798Z,101954.14
2017-10-13T01:25:49.442Z,101956.77
2017-10-13T01:28:17.018Z,101957.41
2017-10-13T01:30:44.666Z,101956.70
2017-10-13T01:33:12.250Z,101964.78
2017-10-13T01:35:39.851Z,101960.88
2017-10-13T01:38:07.447Z,101959.27
2017-10-13T01:40:35.045Z,101966.67
2017-10-13T01:43:02.651Z,101960.92
2017-10-13T01:45:30.254Z,101960.41
2017-10-13T01:47:57.883Z,101958.66
2017-10-13T01:50:25.474Z,101952.56
2017-10-13T01:52:53.113Z,101949.77
2017-10-13T01:55:20.708Z,101940.56
2017-10-13T01:57:48.330Z,101944.41
2017-10-13T02:00:15.931Z,101941.61
2017-10-13T02:02:43.546Z,101941.20
2017-10-13T02:05:11.149Z,101939.44
2017-10-13T02:07:38.767Z,101938.63
2017-10-13T02:10:06.366Z,101941.13
2017-10-13T02:12:33.978Z,101942.19
2017-10-13T02:15:01.575Z,101931.11
2017-10-13T02:17:29.214Z,101916.41
2017-10-13T02:19:56.847Z,101921.39
2017-10-13T02:22:24.522Z,101925.44
2017-10-13T02:24:52.182Z,101926.44
2017-10-13T02:27:19.788Z,101934.33
2017-10-13T02:29:47.407Z,101929.18
2017-10-13T02:32:14.984Z,101930.04
2017-10-13T02:34:42.627Z,101932.20
2017-10-13T02:37:10.213Z,101945.19
2017-10-13T02:39:37.843Z,101945.84
2017-10-13T02:42:05.428Z,101948.16
2017-10-13T02:44:33.043Z,101945.03
2017-10-13T02:47:00.647Z,101943.16
2017-10-13T02:49:28.275Z,101945.62
2017-10-13T02:51:55.888Z,101959.86
2017-10-13T02:54:23.515Z,101950.75
2017-10-13T02:56:51.112Z,101948.73
2017-10-13T02:59:18.759Z,101950.28
2017-10-13T03:01:46.362Z,101950.95
2017-10-13T03:04:13.990Z,101944.64
2017-10-13T03:06:41.620Z,101951.34
2017-10-13T03:09:09.239Z,101943.27
2017-10-13T03:11:36.881Z,101945.13
2017-10-13T03:14:04.484Z,101950.16
2017-10-13T03:16:32.136Z,101950.38
2017-10-13T03:18:59.754Z,101940.84
2017-10-13T03:21:27.375Z,101947.64
2017-10-13T03:23:55.122Z,101945.91
2017-10-13T03:26:22.744Z,101944.03
2017-10-13T03:28:50.347Z,101939.03
2017-10-13T03:31:17.974Z,101945.56
2017-10-13T03:33:45.658Z,101944.95
2017-10-13T03:36:13.274Z,101941.67
2017-10-13T03:38:40.865Z,101939.22
2017-10-13T03:41:08.512Z,101946.38
2017-10-13T03:43:36.108Z,101933.83
2017-10-13T03:46:03.722Z,101938.64
2017-10-13T03:48:31.326Z,101939.52
2017-10-13T03:50:58.941Z,101949.41
2017-10-13T03:53:26.522Z,101952.86
2017-10-13T03:55:54.159Z,101948.42
2017-10-13T03:58:21.746Z,101952.61
2017-10-13T04:00:49.363Z,101950.52
2017-10-13T04:03:16.951Z,101939.47
2017-10-13T04:05:44.585Z,101948.83
2017-10-13T04:08:12.192Z,101947.78
2017-10-13T04:10:39.823Z,101947.98
2017-10-13T04:13:07.426Z,101949.59
2017-10-13T04:15:35.039Z,101956.75
2017-10-13T04:18:02.649Z,101953.34
2017-10-13T04:20:30.265Z,101954.12
2017-10-13T04:22:57.849Z,101955.30
2017-10-13T04:25:25.533Z,101956.52
2017-10-13T04:27:53.151Z,101959.16
2017-10-13T04:30:20.886Z,101953.61
2017-10-13T04:32:48.479Z,101958.01
2017-10-13T04:35:16.068Z,101947.18
2017-10-13T04:37:43.690Z,101950.48
2017-10-13T04:40:11.288Z,101947.98
2017-10-13T04:42:38.912Z,101947.79
2017-10-13T04:45:06.507Z,101942.47
2017-10-13T04:47:34.119Z,101945.00
2017-10-13T04:50:01.715Z,101949.54
2017-10-13T04:52:29.356Z,101946.78
2017-10-13T04:54:56.982Z,101951.58
2017-10-13T04:57:24.609Z,101951.13
2017-10-13T04:59:52.215Z,101952.80
2017-10-13T05:02:19.842Z,101949.11
2017-10-13T05:04:47.455Z,101942.64
2017-10-13T05:07:15.100Z,101947.63
2017-10-13T05:09:42.694Z,101945.91
2017-10-13T05:12:10.347Z,101940.91
2017-10-13T05:14:37.939Z,101949.53
2017-10-13T05:17:05.595Z,101950.07
2017-10-13T05:19:33.174Z,101949.16
2017-10-13T05:22:00.767Z,101945.00
2017-10-13T05:24:28.417Z,101950.96
2017-10-13T05:26:56.072Z,101951.17
2017-10-13T05:29:23.730Z,101957.34
2017-10-13T05:31:51.362Z,101950.00
2017-10-13T05:34:18.976Z,101956.18
2017-10-13T05:36:46.595Z,101953.73
2017-10-13T05:39:14.193Z,101951.73
2017-10-13T05:41:41.839Z,101950.38
2017-10-13T05:44:09.439Z,101953.16
2017-10-13T05:46:37.064Z,101951.52
2017-10-13T05:49:04.659Z,101950.62
2017-10-13T05:51:32.299Z,101956.34
2017-10-13T05:53:59.924Z,101954.87
2017-10-13T05:56:27.506Z,101958.78
2017-10-13T05:58:55.139Z,101968.99
2017-10-13T06:01:22.721Z,101964.75
2017-10-13T06:03:50.379Z,101970.22
2017-10-13T06:06:17.995Z,101975.39
2017-10-13T06:08:45.623Z,101971.31
2017-10-13T06:11:13.217Z,101970.05
2017-10-13T06:13:40.843Z,101971.52
2017-10-13T06:16:08.431Z,101963.59
2017-10-13T06:18:36.110Z,101971.37
2017-10-13T06:21:03.703Z,101976.96
2017-10-13T06:23:31.322Z,101983.56
2017-10-13T06:25:58.918Z,101979.14
2017-10-13T06:28:26.567Z,101967.80
2017-10-13T06:30:54.154Z,101981.25
2017-10-13T06:33:21.870Z,101974.69
2017-10-13T06:35:49.463Z,101977.38
2017-10-13T06:38:17.089Z,101982.05
2017-10-13T06:40:44.682Z,101984.87
2017-10-13T06:43:12.306Z,101990.16
2017-10-13T06:45:39.956Z,101986.20
2017-10-13T06:48:07.587Z,101986.25
2017-10-13T06:50:35.175Z,101986.00
2017-10-13T06:53:02.803Z,101992.09
2017-10-13T06:55:30.422Z,101984.94
2017-10-13T06:57:58.043Z,101990.91
2017-10-13T07:00:25.622Z,102001.72
2017-10-13T07:02:53.283Z,101999.48
2017-10-13T07:05:20.877Z,102003.40
2017-10-13T07:07:48.541Z,102004.44
2017-10-13T07:10:16.115Z,102000.34
2017-10-13T07:12:43.754Z,102002.08
2017-10-13T07:15:11.446Z,102000.13
2017-10-13T07:17:39.074Z,101995.55
2017-10-13T07:20:06.679Z,101996.77
2017-10-13T07:22:34.303Z,101996.38
2017-10-13T07:25:01.904Z,102005.97
2017-10-13T07:27:29.535Z,102000.38
2017-10-13T07:29:57.148Z,102002.30
2017-10-13T07:32:24.787Z,102004.48
2017-10-13T07:34:52.398Z,102004.23
2017-10-13T07:37:19.987Z,102010.58
2017-10-13T07:39:47.607Z,102013.22
2017-10-13T07:42:15.254Z,102013.13
2017-10-13T07:44:42.879Z,102006.84
2017-10-13T07:47:10.476Z,102017.95
2017-10-13T07:49:38.163Z,102019.62
2017-10-13T07:52:05.771Z,102022.73
2017-10-13T07:54:33.396Z,102030.84
2017-10-13T07:57:00.998Z,102033.03
2017-10-13T07:59:28.650Z,102035.05
2017-10-13T08:01:56.256Z,102041.83
2017-10-13T08:04:23.884Z,102042.66
2017-10-13T08:06:51.476Z,102046.19
2017-10-13T08:09:19.118Z,102047.44
2017-10-13T08:11:46.720Z,102050.87
2017-10-13T08:14:14.354Z,102053.73
2017-10-13T08:16:41.958Z,102055.44
2017-10-13T08:19:09.606Z,102054.70
2017-10-13T08:21:37.206Z,102052.88
2017-10-13T08:24:04.861Z,102057.91
2017-10-13T08:26:32.434Z,102054.16
2017-10-13T08:29:00.079Z,102060.15
2017-10-13T08:31:27.695Z,102056.68
2017-10-13T08:33:55.319Z,102059.25
2017-10-13T08:36:22.978Z,102060.50
2017-10-13T08:38:50.626Z,102063.64
2017-10-13T08:41:18.247Z,102060.55
2017-10-13T08:43:45.821Z,102057.69
2017-10-13T08:46:13.482Z,102058.55
2017-10-13T08:48:41.116Z,102053.45
2017-10-13T08:51:08.738Z,102047.47
2017-10-13T08:53:36.355Z,102050.63
2017-10-13T08:56:04.003Z,102051.75
2017-10-13T08:58:31.596Z,102055.20
2017-10-13T09:00:59.262Z,102055.91
2017-10-13T09:03:26.872Z,102060.02
2017-10-13T09:05:54.494Z,102057.07
2017-10-13T09:08:22.092Z,102058.05
2017-10-13T09:10:49.720Z,102051.44
2017-10-13T09:13:17.332Z,102059.92
2017-10-13T09:15:44.964Z,102061.59
2017-10-13T09:18:12.566Z,102060.66
2017-10-13T09:20:40.206Z,102069.19
2017-10-13T09:23:07.789Z,102071.91
2017-10-13T09:25:35.478Z,102064.22
2017-10-13T09:28:03.099Z,102066.91
2017-10-13T09:30:30.787Z,102064.36
2017-10-13T09:32:58.392Z,102063.16
2017-10-13T09:35:26.038Z,102061.78
2017-10-13T09:37:53.641Z,102059.16
2017-10-13T09:40:21.290Z,102055.00
2017-10-13T09:42:48.887Z,102058.47
2017-10-13T09:45:16.507Z,102065.02
2017-10-13T09:47:44.118Z,102059.26
2017-10-13T09:50:11.747Z,102061.34
2017-10-13T09:52:39.363Z,102055.95
2017-10-13T09:55:06.995Z,102063.52
2017-10-13T09:57:34.588Z,102061.78
2017-10-13T10:00:02.222Z,102065.97
2017-10-13T10:02:29.834Z,102067.73
2017-10-13T10:04:57.473Z,102072.99
2017-10-13T10:07:25.067Z,102072.98
2017-10-13T10:09:52.843Z,102072.83
2017-10-13T10:12:20.503Z,102068.80
2017-10-13T10:14:48.155Z,102068.39
2017-10-13T10:17:15.747Z,102069.05
2017-10-13T10:19:43.370Z,102068.92
2017-10-13T10:22:10.970Z,102066.63
2017-10-13T10:24:38.590Z,102065.42
2017-10-13T10:27:06.202Z,102065.84
2017-10-13T10:29:33.838Z,102067.86
2017-10-13T10:32:01.436Z,102066.66
2017-10-13T10:34:29.102Z,102068.27
2017-10-13T10:36:56.740Z,102065.43
2017-10-13T10:39:24.396Z,102073.00
2017-10-13T10:41:52.024Z,102077.48
2017-10-13T10:44:19.646Z,102077.90
2017-10-13T10:46:47.255Z,102077.77
2017-10-13T10:49:14.878Z,102071.94
2017-10-13T10:51:42.467Z,102071.25
2017-10-13T10:54:10.091Z,102063.40
2017-10-13T10:56:37.699Z,102067.43
2017-10-13T10:59:05.283Z,102058.89
2017-10-13T11:01:32.882Z,102059.44
2017-10-13T11:04:00.530Z,102054.96
2017-10-13T11:06:28.127Z,102058.09
2017-10-13T11:08:55.789Z,102058.60
2017-10-13T11:11:23.365Z,102050.22
2017-10-13T11:13:50.967Z,102048.95
2017-10-13T11:16:18.590Z,102047.41
2017-10-13T11:18:46.219Z,102041.93
2017-10-13T11:21:13.793Z,102042.34
2017-10-13T11:23:41.387Z,102041.36
2017-10-13T11:26:09.012Z,102047.64
2017-10-13T11:28:36.722Z,102041.22
2017-10-13T11:31:04.355Z,102041.88
2017-10-13T11:33:31.949Z,102044.31
2017-10-13T11:35:59.570Z,102031.56
2017-10-13T11:38:27.212Z,102039.13
2017-10-13T11:40:54.827Z,102039.87
2017-10-13T11:43:22.439Z,102034.67
2017-10-13T11:45:50.095Z,102037.31
2017-10-13T11:48:17.698Z,102025.22
2017-10-13T11:50:45.332Z,102033.42
2017-10-13T11:53:12.913Z,102033.63
2017-10-13T11:55:40.555Z,102034.59
2017-10-13T11:58:08.145Z,102040.23
2017-10-13T12:00:35.759Z,102040.55
2017-10-13T12:03:03.352Z,102038.35
2017-10-13T12:05:30.974Z,102033.53
2017-10-13T12:07:58.567Z,102023.59
2017-10-13T12:10:26.206Z,102015.38
2017-10-13T12:12:53.795Z,102011.86
2017-10-13T12:15:21.390Z,102012.01
2017-10-13T12:17:48.986Z,102017.26
2017-10-13T12:20:16.622Z,102021.79
2017-10-13T12:22:44.210Z,102028.63
2017-10-13T12:25:11.827Z,102027.33
2017-10-13T12:27:39.422Z,102031.06
2017-10-13T12:30:07.116Z,102035.83
2017-10-13T12:32:34.709Z,102036.95
2017-10-13T12:35:02.320Z,102037.77
2017-10-13T12:37:29.922Z,102036.38
2017-10-13T12:39:57.542Z,102036.68
2017-10-13T12:42:25.256Z,102033.02
2017-10-13T12:44:52.903Z,102035.50
2017-10-13T12:47:20.510Z,102034.44
2017-10-13T12:49:48.139Z,102030.34
2017-10-13T12:52:15.714Z,102033.34
2017-10-13T12:54:43.338Z,102026.23
2017-10-13T12:57:11.003Z,102017.88
2017-10-13T12:59:38.663Z,102018.23
2017-10-13T13:02:06.254Z,102017.66
2017-10-13T13:04:33.872Z,102022.14
2017-10-13T13:07:01.476Z,102012.10
2017-10-13T13:09:29.150Z,102011.69
2017-10-13T13:11:56.751Z,102015.28
2017-10-13T13:14:24.351Z,102019.83
2017-10-13T13:16:51.979Z,102023.90
2017-10-13T13:19:19.584Z,102020.69
2017-10-13T13:21:47.207Z,102023.98
2017-10-13T13:24:14.808Z,102029.41
2017-10-13T13:26:42.437Z,102020.91
2017-10-13T13:29:10.045Z,102019.28
2017-10-13T13:31:37.661Z,102024.53
2017-10-13T13:34:05.243Z,102021.95
2017-10-13T13:36:32.878Z,102022.61
2017-10-13T13:39:00.464Z,102017.86
2017-10-13T13:41:28.096Z,102013.95
2017-10-13T13:43:55.717Z,102013.88
2017-10-13T13:46:23.330Z,102019.11
2017-10-13T13:48:50.924Z,102019.86
2017-10-13T13:51:18.622Z,102014.11
2017-10-13T13:53:46.241Z,102012.24
2017-10-13T13:56:13.858Z,102013.56
2017-10-13T13:58:41.458Z,102012.92
2017-10-13T14:01:09.095Z,102015.72
2017-10-13T14:03:36.695Z,102003.13
2017-10-13T14:06:04.322Z,102005.96
2017-10-13T14:08:31.924Z,102006.34
2017-10-13T14:10:59.577Z,101999.77
2017-10-13T14:13:27.197Z,102002.65
2017-10-13T14:15:54.816Z,102001.78
2017-10-13T14:18:22.423Z,102003.98
2017-10-13T14:20:50.062Z,101998.67
2017-10-13T14:23:17.649Z,101999.19
2017-10-13T14:25:45.308Z,102000.44
2017-10-13T14:28:12.909Z,101994.30
2017-10-13T14:30:40.519Z,101995.55
2017-10-13T14:33:08.190Z,102004.84
2017-10-13T14:35:35.786Z,102012.06
2017-10-13T14:38:03.409Z,102007.30
2017-10-13T14:40:31.043Z,102006.99
2017-10-13T14:42:58.681Z,102010.56
2017-10-13T14:45:26.282Z,102008.83
2017-10-13T14:47:53.912Z,102010.08
2017-10-13T14:50:21.507Z,102010.59
2017-10-13T14:52:49.156Z,102014.05
2017-10-13T14:55:16.739Z,102012.25
2017-10-13T14:57:44.339Z,102010.71
2017-10-13T15:00:11.955Z,102007.81
2017-10-13T15:02:39.547Z,102009.64
2017-10-13T15:05:07.178Z,102010.58
2017-10-13T15:07:34.779Z,102020.98
2017-10-13T15:10:02.411Z,102018.99
2017-10-13T15:12:30.059Z,102025.41
2017-10-13T15:14:57.683Z,102020.43
2017-10-13T15:17:25.270Z,102019.38
2017-10-13T15:19:52.888Z,102020.27
2017-10-13T15:22:20.522Z,102019.44
2017-10-13T15:24:53.546Z,102024.09
2017-10-13T15:27:26.646Z,102028.11
2017-10-13T15:29:59.658Z,102030.72
2017-10-13T15:32:32.706Z,102023.83
2017-10-13T15:35:05.872Z,102021.88
2017-10-13T15:37:33.487Z,102025.30
2017-10-13T15:40:06.678Z,102026.54
2017-10-13T15:42:39.739Z,102026.26
2017-10-13T15:45:07.322Z,102023.59
2017-10-13T15:47:40.501Z,102026.63
2017-10-13T15:50:13.541Z,102026.72
2017-10-13T15:52:41.165Z,102024.02
2017-10-13T15:55:08.766Z,102027.16
2017-10-13T15:57:36.398Z,102024.14
2017-10-13T16:00:04.115Z,102024.31
2017-10-13T16:02:31.746Z,102016.72
2017-10-13T16:04:59.374Z,102017.97
2017-10-13T16:07:27.002Z,102024.11
2017-10-13T16:09:54.595Z,102022.05
2017-10-13T16:12:22.235Z,102023.33
2017-10-13T16:14:49.835Z,102019.13
2017-10-13T16:17:17.470Z,102026.89
2017-10-13T16:19:45.079Z,102021.33
2017-10-13T16:22:12.683Z,102021.11
2017-10-13T16:24:40.287Z,102025.47
2017-10-13T16:27:07.932Z,102022.23
2017-10-13T16:29:35.571Z,102021.72
2017-10-13T16:32:03.202Z,102022.17
2017-10-13T16:34:30.885Z,102021.66
2017-10-13T16:36:58.523Z,102026.16
2017-10-13T16:39:26.120Z,102026.04
2017-10-13T16:41:53.760Z,102029.05
2017-10-13T16:44:21.512Z,102027.98
2017-10-13T16:46:49.124Z,102029.63
2017-10-13T16:49:16.759Z,102032.09
2017-10-13T16:51:44.400Z,102033.58
2017-10-13T16:54:12.011Z,102035.92
2017-10-13T16:56:39.663Z,102040.52
2017-10-13T16:59:07.291Z,102042.02
2017-10-13T17:01:34.924Z,102046.38
2017-10-13T17:04:02.628Z,102038.65
2017-10-13T17:06:30.290Z,102047.88
2017-10-13T17:08:59.595Z,102048.02
2017-10-13T17:11:27.237Z,102046.13
2017-10-13T17:13:54.898Z,102051.42
2017-10-13T17:16:22.505Z,102053.61
2017-10-13T17:18:50.189Z,102054.03
2017-10-13T17:21:17.791Z,102060.27
2017-10-13T17:23:45.407Z,102066.50
2017-10-13T17:26:13.010Z,102065.04
2017-10-13T17:28:40.680Z,102057.97
2017-10-13T17:31:08.279Z,102069.22
2017-10-13T17:33:35.966Z,102058.91
2017-10-13T17:36:03.586Z,102066.50
2017-10-13T17:38:31.216Z,102067.76
2017-10-13T17:40:58.870Z,102065.57
2017-10-13T17:43:26.503Z,102066.27
2017-10-13T17:45:54.153Z,102072.78
2017-10-13T17:48:21.746Z,102067.08
2017-10-13T17:50:49.401Z,102072.66
2017-10-13T17:53:17.022Z,102073.35
2017-10-13T17:55:44.647Z,102066.44
2017-10-13T17:58:12.263Z,102073.36
2017-10-13T18:00:39.955Z,102068.60
2017-10-13T18:03:07.554Z,102073.23
2017-10-13T18:05:35.291Z,102069.97
2017-10-13T18:08:02.887Z,102073.77
2017-10-13T18:10:30.526Z,102072.70
2017-10-13T18:12:58.128Z,102069.58
2017-10-13T18:15:25.767Z,102066.36
2017-10-13T18:17:53.358Z,102073.53
2017-10-13T18:20:20.977Z,102067.72
2017-10-13T18:22:48.619Z,102074.89
2017-10-13T18:25:16.257Z,102065.80
2017-10-13T18:27:43.879Z,102068.00
2017-10-13T18:30:11.513Z,102067.02
2017-10-13T18:32:39.111Z,102064.16
2017-10-13T18:35:06.715Z,102060.64
2017-10-13T18:37:34.331Z,102055.50
2017-10-13T18:40:01.946Z,102050.87
2017-10-13T18:42:29.587Z,102054.67
2017-10-13T18:44:57.197Z,102055.50
2017-10-13T18:47:24.826Z,102055.09
2017-10-13T18:49:52.567Z,102054.02
2017-10-13T18:52:20.201Z,102056.19
2017-10-13T18:54:47.799Z,102057.59
2017-10-13T18:57:15.428Z,102057.59
2017-10-13T18:59:43.139Z,102059.19
2017-10-13T19:02:10.762Z,102064.70
2017-10-13T19:04:38.418Z,102057.50
2017-10-13T19:07:06.047Z,102056.58
2017-10-13T19:09:33.670Z,102063.39
2017-10-13T19:12:01.324Z,102060.84
2017-10-13T19:14:28.960Z,102061.97
2017-10-13T19:16:56.599Z,102069.98
2017-10-13T19:19:24.227Z,102065.49
2017-10-13T19:21:51.848Z,102069.97
2017-10-13T19:24:19.535Z,102064.69
2017-10-13T19:26:47.145Z,102065.48
2017-10-13T19:29:14.796Z,102071.05
2017-10-13T19:31:42.444Z,102074.46
2017-10-13T19:34:10.073Z,102065.62
2017-10-13T19:36:37.687Z,102063.20
2017-10-13T19:39:05.313Z,102071.05
2017-10-13T19:41:32.907Z,102069.42
2017-10-13T19:44:00.541Z,102066.33
2017-10-13T19:46:28.136Z,102069.33
2017-10-13T19:48:55.794Z,102067.55
2017-10-13T19:51:23.419Z,102065.78
2017-10-13T19:53:51.074Z,102069.05
2017-10-13T19:56:18.689Z,102067.42
2017-10-13T19:58:46.327Z,102076.39
2017-10-13T20:01:13.918Z,102077.33
2017-10-13T20:03:41.643Z,102077.74
2017-10-13T20:06:09.270Z,102078.55
2017-10-13T20:08:36.924Z,102080.31
2017-10-13T20:11:04.542Z,102080.19
2017-10-13T20:13:32.175Z,102080.05
2017-10-13T20:15:59.768Z,102081.27
2017-10-13T20:18:27.436Z,102084.26
2017-10-13T20:20:55.032Z,102090.63
2017-10-13T20:23:22.766Z,102087.77
2017-10-13T20:25:50.367Z,102092.82
2017-10-13T20:28:17.991Z,102084.83
2017-10-13T20:30:45.633Z,102091.85
2017-10-13T20:33:13.267Z,102098.53
2017-10-13T20:35:40.868Z,102094.84
2017-10-13T20:38:08.498Z,102095.81
2017-10-13T20:40:36.096Z,102089.84
2017-10-13T20:43:03.759Z,102094.98
2017-10-13T20:45:31.366Z,102094.05
2017-10-13T20:47:58.992Z,102096.09
2017-10-13T20:50:26.586Z,102095.92
2017-10-13T20:52:54.211Z,102092.39
2017-10-13T20:55:21.818Z,102093.20
2017-10-13T20:57:49.467Z,102094.45
2017-10-13T21:00:17.059Z,102100.16
2017-10-13T21:02:44.702Z,102103.68
2017-10-13T21:05:12.318Z,102099.61
2017-10-13T21:07:39.972Z,102105.45
2017-10-13T21:10:07.566Z,102100.73
2017-10-13T21:12:35.210Z,102107.10
2017-10-13T21:15:02.803Z,102105.75
2017-10-13T21:17:30.442Z,102112.11
2017-10-13T21:19:58.049Z,102110.65
2017-10-13T21:22:25.700Z,102104.67
2017-10-13T21:24:53.337Z,102103.18
2017-10-13T21:27:20.958Z,102102.23
2017-10-13T21:29:48.567Z,102108.61
2017-10-13T21:32:16.201Z,102107.00
2017-10-13T21:34:43.812Z,102113.78
2017-10-13T21:37:11.483Z,102112.02
2017-10-13T21:39:39.090Z,102119.20
2017-10-13T21:42:06.752Z,102118.52
2017-10-13T21:44:34.352Z,102117.16
2017-10-13T21:47:01.974Z,102121.63
2017-10-13T21:49:29.593Z,102123.68
2017-10-13T21:51:57.198Z,102125.14
2017-10-13T21:54:24.839Z,102123.41
2017-10-13T21:56:52.442Z,102125.28
2017-10-13T21:59:20.080Z,102121.48
2017-10-13T22:01:47.670Z,102125.55
2017-10-13T22:04:15.306Z,102127.05
2017-10-13T22:06:42.929Z,102133.70
2017-10-13T22:09:10.582Z,102130.71
2017-10-13T22:11:38.167Z,102127.61
2017-10-13T22:14:05.811Z,102134.50
2017-10-13T22:16:33.444Z,102135.44
2017-10-13T22:19:01.158Z,102133.14
2017-10-13T22:21:28.875Z,102135.71
2017-10-13T22:23:56.725Z,102134.08
2017-10-13T22:26:24.384Z,102128.40
2017-10-13T22:28:52.199Z,102127.84
2017-10-13T22:31:19.874Z,102137.73
2017-10-13T22:33:47.606Z,102130.30
2017-10-13T22:36:15.290Z,102136.11
2017-10-13T22:38:43.063Z,102132.31
2017-10-13T22:41:10.745Z,102137.73
2017-10-13T22:43:38.334Z,102135.15
2017-10-13T22:46:05.974Z,102135.80
2017-10-13T22:48:33.574Z,102143.13
2017-10-13T22:51:01.195Z,102142.19
2017-10-13T22:53:28.895Z,102141.36
2017-10-13T22:55:56.535Z,102147.46
2017-10-13T22:58:24.126Z,102148.11
2017-10-13T23:00:51.763Z,102149.19
2017-10-13T23:03:19.418Z,102150.31
2017-10-13T23:05:47.117Z,102141.64
2017-10-13T23:08:14.783Z,102145.14
2017-10-13T23:10:42.663Z,102149.48
2017-10-13T23:13:10.327Z,102156.67
2017-10-13T23:15:37.992Z,102156.26
2017-10-13T23:18:05.693Z,102162.62
2017-10-13T23:20:33.540Z,102155.13
2017-10-13T23:23:01.281Z,102156.59
2017-10-13T23:25:29.045Z,102151.73
2017-10-13T23:27:56.670Z,102159.13
2017-10-13T23:30:24.278Z,102151.94
2017-10-13T23:32:52.026Z,102157.75
2017-10-13T23:35:19.627Z,102151.79
2017-10-13T23:37:47.251Z,102156.64
2017-10-13T23:40:15.063Z,102153.39
2017-10-13T23:42:42.687Z,102154.08
2017-10-13T23:45:10.286Z,102154.52
2017-10-13T23:47:37.911Z,102158.42
2017-10-13T23:50:05.499Z,102156.89
2017-10-13T23:52:33.131Z,102153.79
2017-10-13T23:55:00.824Z,102151.71
2017-10-13T23:57:28.582Z,102168.36
2017-10-13T23:59:56.292Z,102166.19
